Time;durP1;ratioP1;P1;durP2;ratioP2;P2;SDS_P1;SDS_P2;PMS_P1;PMS_P2;Temp;Humidity;BMP_temperature;BMP_pressure;BME280_temperature;BME280_humidity;BME280_pressure;Samples;Min_cycle;Max_cycle;Signal;HPM_P1;HPM_P2
2021/04/18 00:02:04;;;;;;;4.65;2.45;;;;;;;10.95;24.07;100187.13;5038121;28;20604;-59
2021/04/18 00:04:30;;;;;;;10.25;2.65;;;;;;;11.01;24.24;100175.94;5046924;28;20055;-61
2021/04/18 00:06:55;;;;;;;4.00;2.95;;;;;;;10.94;24.22;100172.03;5048554;28;20040;-61
2021/04/18 00:09:21;;;;;;;6.15;3.15;;;;;;;10.89;24.56;100175.03;5050026;28;20041;-62
2021/04/18 00:11:46;;;;;;;6.45;3.05;;;;;;;10.86;24.65;100174.44;5049914;28;20049;-60
2021/04/18 00:14:12;;;;;;;5.85;3.00;;;;;;;10.80;24.54;100166.84;5050000;28;20041;-62
2021/04/18 00:16:38;;;;;;;6.25;3.13;;;;;;;10.88;24.41;100189.41;5050445;28;20056;-61
2021/04/18 00:19:04;;;;;;;9.40;3.38;;;;;;;10.89;24.58;100182.25;5050274;28;20132;-61
2021/04/18 00:21:30;;;;;;;7.38;2.97;;;;;;;10.71;24.90;100174.63;5050506;28;20041;-63
2021/04/18 00:23:56;;;;;;;7.40;3.10;;;;;;;10.59;25.07;100175.53;5048353;28;20044;-63
2021/04/18 00:26:21;;;;;;;5.30;3.03;;;;;;;10.66;25.07;100171.44;5050286;28;20041;-62
2021/04/18 00:28:47;;;;;;;6.30;2.90;;;;;;;10.79;24.59;100186.56;5050051;28;20115;-57
2021/04/18 00:31:12;;;;;;;5.75;3.15;;;;;;;10.44;25.30;100170.38;5056275;28;20134;-61
2021/04/18 00:33:38;;;;;;;7.60;2.60;;;;;;;10.64;24.95;100181.44;5049743;28;20105;-61
2021/04/18 00:36:05;;;;;;;4.68;2.90;;;;;;;10.61;25.18;100193.22;5049818;28;20523;-62
2021/04/18 00:38:31;;;;;;;6.85;3.03;;;;;;;10.49;25.24;100175.41;5047340;28;20512;-62
2021/04/18 00:40:56;;;;;;;6.40;3.00;;;;;;;10.50;25.40;100190.50;5034376;28;20033;-61
2021/04/18 00:43:22;;;;;;;5.18;3.22;;;;;;;10.35;25.53;100187.06;5050073;28;20033;-62
2021/04/18 00:45:47;;;;;;;5.50;3.00;;;;;;;10.28;25.73;100180.47;5049487;28;20037;-55
2021/04/18 00:48:13;;;;;;;7.47;3.20;;;;;;;10.17;25.90;100187.50;5050198;28;20485;-61
2021/04/18 00:50:39;;;;;;;4.82;2.78;;;;;;;10.18;25.85;100189.19;5049663;28;20557;-61
2021/04/18 00:53:07;;;;;;;5.68;3.10;;;;;;;10.41;25.58;100199.19;5033575;28;20047;-63
2021/04/18 00:55:44;;;;;;;5.22;2.65;;;;;;;10.40;25.85;100203.72;5029790;28;20091;-60
2021/04/18 00:58:11;;;;;;;6.90;3.20;;;;;;;10.33;25.56;100194.38;5048792;28;20513;-61
2021/04/18 01:00:38;;;;;;;4.97;2.95;;;;;;;10.23;25.98;100186.16;5046519;28;21639;-60
2021/04/18 01:03:05;;;;;;;5.43;3.05;;;;;;;10.19;25.74;100184.69;5047884;28;20732;-58
2021/04/18 01:05:31;;;;;;;6.30;2.83;;;;;;;10.25;25.94;100186.94;5047500;28;20081;-58
2021/04/18 01:07:56;;;;;;;6.03;3.10;;;;;;;10.07;25.92;100185.59;5046856;28;20033;-60
2021/04/18 01:10:22;;;;;;;6.03;3.40;;;;;;;9.99;26.21;100192.34;5047502;28;20122;-60
2021/04/18 08:17:27;;;;;;;6.23;1.67;;;;;;;22.70;10.24;100163.22;5029567;28;20068;-57
2021/04/18 08:20:01;;;;;;;2.95;1.80;;;;;;;21.18;11.46;100161.72;5026823;28;20076;-61
2021/04/18 08:23:05;;;;;;;7.53;2.00;;;;;;;20.28;12.25;100157.81;5055596;28;20170;-62
2021/04/18 08:25:33;;;;;;;5.53;1.90;;;;;;;19.73;12.75;100157.72;5066413;28;20059;-63
2021/04/18 08:27:59;;;;;;;5.03;1.90;;;;;;;19.51;12.94;100093.13;5066030;28;20059;-60
2021/04/18 08:30:24;;;;;;;3.47;1.92;;;;;;;19.03;13.54;100120.22;5065604;28;20068;-60
2021/04/18 08:32:51;;;;;;;5.35;1.73;;;;;;;19.07;13.58;100143.31;5065697;28;20071;-61
2021/04/18 08:35:20;;;;;;;3.33;1.73;;;;;;;18.76;13.74;100138.53;5067855;28;20029;-61
2021/04/18 08:38:11;;;;;;;5.05;1.20;;;;;;;18.93;13.97;100157.53;5068891;28;20491;-63
2021/04/18 08:40:37;;;;;;;4.20;1.55;;;;;;;18.61;14.35;100146.50;5055882;28;20032;-62
2021/04/18 08:43:26;;;;;;;5.10;1.80;;;;;;;17.95;14.34;100103.00;5069458;28;20043;-62
2021/04/18 08:45:57;;;;;;;4.65;1.98;;;;;;;18.54;14.19;100152.75;5066059;28;20032;-63
2021/04/18 08:48:23;;;;;;;4.45;2.10;;;;;;;18.51;14.26;100165.63;5061123;28;20037;-62
2021/04/18 08:50:55;;;;;;;3.45;2.00;;;;;;;18.42;14.30;100152.25;5070155;28;20051;-62
2021/04/18 08:53:21;;;;;;;3.92;1.90;;;;;;;18.44;14.35;100142.06;5069734;28;20035;-63
2021/04/18 08:55:59;;;;;;;2.72;1.60;;;;;;;18.23;14.41;100113.63;5069552;28;20024;-64
2021/04/18 08:58:31;;;;;;;4.45;2.00;;;;;;;18.28;14.61;100173.56;5069701;28;20068;-63
2021/04/18 09:01:07;;;;;;;3.67;1.58;;;;;;;18.17;14.82;100171.16;5066133;28;20028;-62
2021/04/18 09:03:33;;;;;;;3.22;1.20;;;;;;;18.40;14.50;100156.97;5056864;28;20045;-62
2021/04/18 09:06:17;;;;;;;2.28;1.50;;;;;;;18.12;14.85;100146.44;5066505;28;20119;-61
2021/04/18 09:08:53;;;;;;;4.30;2.00;;;;;;;18.20;15.23;100160.00;5051349;28;20037;-60
2021/04/18 09:11:19;;;;;;;3.22;2.00;;;;;;;18.41;14.89;100147.84;5069393;28;20102;-61
2021/04/18 09:13:59;;;;;;;3.60;1.88;;;;;;;18.63;14.70;100166.16;5049174;28;20032;-56
2021/04/18 09:16:30;;;;;;;8.00;2.38;;;;;;;18.77;14.63;100148.38;5048124;28;20059;-61
2021/04/18 09:19:23;;;;;;;5.75;1.98;;;;;;;18.99;14.46;100159.59;5047991;28;20499;-62
2021/04/18 09:21:52;;;;;;;3.45;2.10;;;;;;;18.56;14.51;100134.47;5047968;28;20044;-62
2021/04/18 09:24:18;;;;;;;6.07;2.20;;;;;;;18.67;14.82;100144.13;5048588;28;20128;-62
2021/04/18 09:26:58;;;;;;;7.35;2.10;;;;;;;18.95;14.40;100160.91;5047929;28;20121;-62
2021/04/18 09:29:24;;;;;;;5.32;2.15;;;;;;;18.24;14.86;100049.41;5030858;28;20033;-61
2021/04/18 09:31:58;;;;;;;5.03;1.90;;;;;;;19.02;14.49;100144.84;5049031;28;20037;-63
2021/04/18 09:34:23;;;;;;;5.65;2.05;;;;;;;19.13;14.42;100139.03;5048725;28;20037;-62
2021/04/18 09:36:55;;;;;;;5.22;2.17;;;;;;;19.25;14.40;100125.94;5048756;28;20033;-61
2021/04/18 09:39:25;;;;;;;2.58;1.98;;;;;;;19.44;14.47;100145.59;5051353;28;20067;-61
2021/04/18 09:41:51;;;;;;;6.55;2.17;;;;;;;19.28;14.50;100149.19;5037933;28;20033;-61
2021/04/18 09:44:31;;;;;;;5.57;2.17;;;;;;;19.06;14.70;100143.47;5033073;28;20049;-59
2021/04/18 09:47:16;;;;;;;7.40;2.10;;;;;;;19.11;14.88;100148.41;5033056;28;20033;-61
2021/04/18 09:49:47;;;;;;;4.45;1.92;;;;;;;19.24;14.64;100151.41;5031212;28;20504;-63
2021/04/18 09:52:23;;;;;;;4.18;1.63;;;;;;;19.62;14.63;100154.38;5037396;28;20029;-63
2021/04/18 09:54:48;;;;;;;3.70;1.30;;;;;;;19.18;14.78;100144.81;5040177;28;20048;-60
2021/04/18 09:57:14;;;;;;;7.22;1.73;;;;;;;19.21;14.85;100140.91;5052901;28;20409;-62
2021/04/18 09:59:40;;;;;;;5.03;1.80;;;;;;;19.34;14.94;100154.78;5026071;28;20029;-61
2021/04/18 10:02:14;;;;;;;5.80;2.78;;;;;;;19.39;14.80;100154.25;5014563;28;20035;-61
2021/04/18 10:04:41;;;;;;;4.35;1.80;;;;;;;19.25;14.69;100134.09;5047409;28;20064;-62
2021/04/18 10:07:07;;;;;;;4.03;1.70;;;;;;;18.94;15.16;100151.94;5052730;28;20108;-62
2021/04/18 10:09:52;;;;;;;4.82;1.70;;;;;;;18.85;15.21;100163.78;5052070;28;20033;-61
2021/04/18 10:12:18;;;;;;;8.50;2.07;;;;;;;18.45;15.13;100122.94;5041626;28;20041;-62
2021/04/18 10:14:44;;;;;;;4.13;1.65;;;;;;;18.68;15.00;100134.97;5032938;28;20045;-61
2021/04/18 10:17:10;;;;;;;3.58;1.65;;;;;;;18.44;15.60;100136.66;5032805;28;20502;-65
2021/04/18 10:19:51;;;;;;;3.08;1.67;;;;;;;18.61;15.68;100145.66;5032158;28;20050;-61
2021/04/18 10:22:16;;;;;;;2.75;1.70;;;;;;;18.63;15.37;100151.78;5041039;28;20132;-57
2021/04/18 10:24:44;;;;;;;3.17;1.23;;;;;;;18.78;15.27;100144.63;5052408;28;20407;-61
2021/04/18 10:27:24;;;;;;;4.65;1.75;;;;;;;18.56;15.29;100157.00;5052375;28;20522;-61
2021/04/18 10:29:50;;;;;;;3.33;2.00;;;;;;;18.36;15.52;100151.91;5051601;28;20435;-60
2021/04/18 10:32:18;;;;;;;6.28;1.80;;;;;;;18.23;15.76;100154.25;5052525;28;20534;-61
2021/04/18 10:34:43;;;;;;;6.03;2.10;;;;;;;18.35;15.90;100165.63;5052533;28;20082;-61
2021/04/18 10:37:09;;;;;;;8.32;2.00;;;;;;;18.11;15.57;100085.13;5051824;28;20037;-60
2021/04/18 10:39:35;;;;;;;4.78;1.73;;;;;;;18.57;15.54;100160.59;5051821;28;20078;-69
2021/04/18 10:42:01;;;;;;;4.07;1.50;;;;;;;18.83;15.53;100162.28;5035202;28;20056;-71
2021/04/18 10:44:27;;;;;;;6.28;2.30;;;;;;;18.80;15.56;100147.19;5031861;28;20030;-66
2021/04/18 10:46:59;;;;;;;3.30;1.80;;;;;;;18.79;15.65;100154.47;5031913;28;20040;-64
2021/04/18 10:49:26;;;;;;;3.83;1.65;;;;;;;18.98;15.33;100144.31;5013780;28;20504;-63
2021/04/18 10:51:52;;;;;;;6.55;1.98;;;;;;;18.77;15.48;100147.53;5049840;28;20557;-59
2021/04/18 10:54:18;;;;;;;3.15;1.70;;;;;;;19.00;15.34;100136.84;5051385;28;20033;-61
2021/04/18 10:56:51;;;;;;;6.95;1.98;;;;;;;19.04;15.33;100176.19;5050829;28;20082;-65
2021/04/18 10:59:18;;;;;;;3.80;1.50;;;;;;;18.86;15.44;100151.94;5051553;28;20060;-63
2021/04/18 11:01:50;;;;;;;4.28;1.40;;;;;;;19.13;15.00;100141.75;5051579;28;20044;-65
2021/04/18 11:04:16;;;;;;;4.82;2.00;;;;;;;18.94;15.44;100160.09;5038609;28;20025;-64
2021/04/18 11:06:42;;;;;;;2.60;1.52;;;;;;;18.80;15.27;100164.28;5032061;28;20141;-61
2021/04/18 11:09:08;;;;;;;3.95;1.70;;;;;;;18.54;15.90;100150.91;5048915;28;20533;-62
2021/04/18 11:11:34;;;;;;;5.55;1.83;;;;;;;18.89;15.36;100164.31;5015554;28;20045;-63
2021/04/18 11:14:00;;;;;;;3.60;1.88;;;;;;;19.06;15.31;100162.47;5027671;28;20029;-63
2021/04/18 11:16:25;;;;;;;4.05;1.70;;;;;;;18.97;15.42;100177.88;5030785;28;20111;-64
2021/04/18 11:18:51;;;;;;;6.05;1.90;;;;;;;18.96;15.41;100178.88;5029965;28;20049;-60
2021/04/18 11:21:17;;;;;;;9.52;2.55;;;;;;;18.82;15.49;100166.84;5045900;28;20488;-61
2021/04/18 11:23:43;;;;;;;6.95;2.42;;;;;;;18.21;15.92;100132.72;5031622;28;20076;-63
2021/04/18 11:26:08;;;;;;;7.32;3.58;;;;;;;18.49;16.26;100200.22;5031255;28;20071;-65
2021/04/18 11:28:34;;;;;;;9.52;5.07;;;;;;;18.22;16.96;100182.38;5031335;28;20034;-64
2021/04/18 11:31:00;;;;;;;15.40;6.38;;;;;;;18.30;17.91;100238.44;5031792;28;20083;-64
2021/04/18 11:33:25;;;;;;;14.57;7.32;;;;;;;18.26;18.42;100228.94;5031187;28;20467;-63
2021/04/18 11:35:51;;;;;;;14.63;7.30;;;;;;;18.02;18.70;100217.00;5031285;28;20043;-63
2021/04/18 11:38:17;;;;;;;16.77;7.30;;;;;;;17.49;18.89;100165.63;5030612;28;20037;-61
2021/04/18 11:40:50;;;;;;;16.17;7.53;;;;;;;17.62;19.16;100212.06;5031092;28;20033;-63
2021/04/18 11:43:15;;;;;;;13.43;7.50;;;;;;;17.57;19.62;100237.91;5031087;28;20408;-64
2021/04/18 11:45:41;;;;;;;14.13;6.88;;;;;;;17.43;19.99;100236.63;5043982;28;20068;-63
2021/04/18 11:48:07;;;;;;;15.35;7.18;;;;;;;17.19;20.18;100235.44;5013206;28;20115;-63
2021/04/18 11:50:34;;;;;;;12.35;7.50;;;;;;;17.11;20.48;100257.88;5030879;28;20099;-65
2021/04/18 11:52:59;;;;;;;11.80;6.15;;;;;;;16.96;21.02;100245.84;5013510;28;20037;-61
2021/04/18 11:55:26;;;;;;;13.05;6.68;;;;;;;16.81;21.29;100249.13;5031031;28;20091;-67
2021/04/18 11:57:52;;;;;;;14.13;6.70;;;;;;;16.83;21.20;100257.06;5031311;28;20045;-63
2021/04/18 12:00:18;;;;;;;12.05;7.82;;;;;;;16.75;21.77;100249.72;5037467;28;20394;-62
2021/04/18 12:02:44;;;;;;;13.10;7.68;;;;;;;16.70;22.42;100263.72;5050452;28;20503;-59
2021/04/18 12:05:11;;;;;;;16.42;7.70;;;;;;;16.46;22.99;100273.25;5050665;28;20120;-61
2021/04/18 12:07:36;;;;;;;13.60;7.93;;;;;;;16.27;23.30;100249.03;5048733;28;20431;-62
2021/04/18 12:10:06;;;;;;;16.83;7.80;;;;;;;16.25;23.67;100280.78;5050752;28;20091;-64
2021/04/18 12:12:32;;;;;;;12.40;7.45;;;;;;;16.24;23.78;100276.38;5036320;28;20484;-64
2021/04/18 12:14:57;;;;;;;13.60;8.60;;;;;;;16.17;24.51;100278.81;5028518;28;20091;-62
2021/04/18 12:17:23;;;;;;;16.85;9.35;;;;;;;16.06;25.03;100286.13;5028367;28;20034;-57
2021/04/18 12:19:48;;;;;;;14.18;8.35;;;;;;;15.48;25.21;100195.34;5024060;28;20142;-64
2021/04/18 12:22:14;;;;;;;15.88;9.55;;;;;;;15.85;25.53;100272.78;5029392;28;20241;-59
2021/04/18 12:24:39;;;;;;;21.23;8.98;;;;;;;15.74;26.19;100272.97;5011654;28;20037;-53
2021/04/18 12:27:05;;;;;;;17.70;8.82;;;;;;;15.51;26.65;100284.09;5029497;28;20049;-56
2021/04/18 12:29:32;;;;;;;20.63;8.48;;;;;;;15.45;26.75;100279.31;5029270;28;20034;-59
2021/04/18 12:31:58;;;;;;;17.10;7.75;;;;;;;15.44;26.57;100277.59;5029609;28;20472;-62
2021/04/18 12:34:23;;;;;;;13.45;7.53;;;;;;;15.36;26.82;100246.78;5028946;28;20037;-60
2021/04/18 12:36:49;;;;;;;15.63;7.30;;;;;;;15.31;27.07;100261.69;5029436;28;20064;-63
2021/04/18 12:39:14;;;;;;;14.48;7.72;;;;;;;15.24;27.03;100265.97;5028894;28;20029;-65
2021/04/18 12:41:40;;;;;;;16.40;8.02;;;;;;;15.32;27.25;100274.22;5029590;28;20041;-59
2021/04/18 12:44:06;;;;;;;14.90;6.93;;;;;;;15.34;27.22;100283.00;5029807;28;20052;-62
2021/04/18 12:46:31;;;;;;;16.77;5.80;;;;;;;15.33;26.99;100273.22;5012113;28;20059;-63
2021/04/18 12:48:56;;;;;;;12.25;5.10;;;;;;;15.19;27.23;100290.66;5029643;28;20477;-61
2021/04/18 12:51:25;;;;;;;11.00;5.28;;;;;;;14.76;27.46;100228.94;5029191;28;20056;-59
2021/04/18 12:53:50;;;;;;;13.15;5.38;;;;;;;15.06;27.44;100269.38;5029968;28;20528;-56
2021/04/18 12:56:16;;;;;;;12.15;4.45;;;;;;;15.19;27.18;100277.16;5022947;28;20033;-73
2021/04/18 12:58:41;;;;;;;6.25;4.03;;;;;;;14.85;27.07;100256.03;4968917;28;20042;-60
2021/04/18 13:01:07;;;;;;;10.52;4.70;;;;;;;14.48;27.52;100215.28;5000438;28;20034;-62
2021/04/18 13:03:32;;;;;;;10.23;3.60;;;;;;;14.87;26.92;100281.88;5011437;28;20162;-61
2021/04/18 13:05:58;;;;;;;9.90;4.30;;;;;;;14.86;26.47;100263.13;5021938;28;20033;-61
2021/04/18 13:08:23;;;;;;;12.00;4.03;;;;;;;14.83;26.81;100276.91;5010247;28;20040;-62
2021/04/18 13:10:49;;;;;;;16.65;4.88;;;;;;;14.86;28.29;100273.91;4991689;28;20033;-62
2021/04/18 13:13:15;;;;;;;12.98;5.45;;;;;;;14.17;28.93;100201.03;5008529;28;20033;-63
2021/04/18 13:15:41;;;;;;;10.10;4.05;;;;;;;14.61;29.29;100292.28;5009847;28;20465;-62
2021/04/18 13:18:09;;;;;;;12.68;5.10;;;;;;;14.61;29.68;100289.59;5014641;28;20477;-63
2021/04/18 13:20:35;;;;;;;8.10;4.57;;;;;;;14.61;29.50;100319.25;5031960;28;20049;-63
2021/04/18 13:23:00;;;;;;;10.85;4.60;;;;;;;14.82;29.75;100315.63;5035395;28;20041;-62
2021/04/18 13:25:26;;;;;;;10.25;4.70;;;;;;;14.58;30.35;100309.56;5029080;28;20034;-62
2021/04/18 13:27:51;;;;;;;9.93;4.90;;;;;;;14.31;30.80;100332.59;5029434;28;20129;-62
2021/04/18 13:30:17;;;;;;;7.68;4.78;;;;;;;14.22;31.51;100311.88;5029119;28;20842;-62
2021/04/18 13:32:44;;;;;;;9.52;4.57;;;;;;;14.00;31.98;100324.53;5028146;28;20033;-60
2021/04/18 13:35:11;;;;;;;12.05;5.15;;;;;;;13.42;32.10;100241.63;5027846;28;20417;-60
2021/04/18 13:37:40;;;;;;;14.98;5.68;;;;;;;13.82;32.26;100308.16;5029893;28;20089;-62
2021/04/18 13:40:07;;;;;;;10.57;5.57;;;;;;;13.91;32.51;100323.50;5029565;28;20037;-62
2021/04/18 13:42:33;;;;;;;10.05;5.97;;;;;;;13.75;32.92;100301.63;5011787;28;20044;-62
2021/04/18 13:44:59;;;;;;;9.93;5.93;;;;;;;13.60;33.46;100307.31;5029168;28;20034;-59
2021/04/18 13:47:25;;;;;;;14.18;6.63;;;;;;;13.27;33.64;100258.09;5045236;28;20168;-62
2021/04/18 13:49:50;;;;;;;12.18;6.40;;;;;;;13.60;33.68;100326.16;5029788;28;20038;-61
2021/04/18 13:52:15;;;;;;;13.13;6.10;;;;;;;13.48;33.95;100317.28;5029253;28;20079;-60
2021/04/18 13:54:41;;;;;;;13.48;5.47;;;;;;;13.59;34.08;100335.22;5029296;28;20416;-60
2021/04/18 13:57:07;;;;;;;8.38;4.82;;;;;;;13.44;34.48;100298.84;5029723;28;20061;-62
2021/04/18 13:59:32;;;;;;;11.48;5.80;;;;;;;13.53;34.66;100298.09;5029672;28;20124;-63
2021/04/18 14:01:58;;;;;;;9.35;5.10;;;;;;;13.48;34.26;100305.66;5029369;28;20214;-62
2021/04/18 14:04:23;;;;;;;7.35;4.50;;;;;;;13.47;34.25;100329.03;5028930;28;20485;-60
2021/04/18 14:06:48;;;;;;;12.70;5.22;;;;;;;13.41;34.15;100299.94;5029400;28;20041;-60
2021/04/18 14:09:14;;;;;;;11.50;5.20;;;;;;;13.22;34.08;100263.00;5029803;28;20029;-62
2021/04/18 14:11:39;;;;;;;9.50;4.63;;;;;;;13.62;34.13;100308.03;5028402;28;20029;-61
2021/04/18 14:14:18;;;;;;;10.77;5.35;;;;;;;13.69;33.82;100326.34;5029177;28;20033;-63
2021/04/18 14:16:43;;;;;;;10.00;4.70;;;;;;;13.64;33.93;100316.00;5028874;28;20040;-63
2021/04/18 14:19:21;;;;;;;13.88;4.40;;;;;;;13.53;34.18;100338.44;5045404;28;20164;-61
2021/04/18 14:21:47;;;;;;;8.80;3.80;;;;;;;13.51;33.93;100329.66;5048728;28;20036;-62
2021/04/18 14:24:12;;;;;;;11.60;4.10;;;;;;;13.24;33.78;100312.13;5048739;28;20127;-61
2021/04/18 14:26:38;;;;;;;11.07;4.60;;;;;;;13.29;34.38;100344.00;5051060;28;20036;-61
2021/04/18 14:29:04;;;;;;;7.45;3.97;;;;;;;13.28;34.80;100332.41;5052609;28;20036;-63
2021/04/18 14:31:30;;;;;;;9.45;3.78;;;;;;;13.17;34.67;100329.75;5052533;28;20037;-60
2021/04/18 14:33:55;;;;;;;9.57;3.97;;;;;;;13.14;34.91;100330.00;5052340;28;20442;-60
2021/04/18 14:36:20;;;;;;;10.18;4.43;;;;;;;13.04;34.99;100346.91;5052575;28;20037;-60
2021/04/18 14:38:46;;;;;;;7.95;4.47;;;;;;;12.47;35.43;100269.13;5052388;28;20029;-62
2021/04/18 14:41:11;;;;;;;13.18;4.70;;;;;;;12.83;36.17;100360.28;5052044;28;20036;-60
2021/04/18 14:43:37;;;;;;;11.48;5.80;;;;;;;12.79;36.73;100366.88;5052555;28;20044;-61
2021/04/18 14:46:03;;;;;;;9.93;5.57;;;;;;;12.78;37.32;100363.34;5034387;28;20037;-60
2021/04/18 14:48:28;;;;;;;8.48;5.32;;;;;;;12.70;37.68;100360.41;5033999;28;20033;-57
2021/04/18 14:50:56;;;;;;;9.82;4.90;;;;;;;12.51;37.87;100352.13;5051007;28;20475;-61
2021/04/18 14:53:22;;;;;;;12.57;5.53;;;;;;;12.55;38.25;100361.69;5051875;28;20582;-61
2021/04/18 14:55:48;;;;;;;10.95;4.82;;;;;;;12.39;38.99;100330.69;5052050;28;20064;-61
2021/04/18 14:58:14;;;;;;;11.70;5.80;;;;;;;12.32;38.89;100345.56;5052335;28;20036;-61
2021/04/18 15:00:41;;;;;;;12.80;5.35;;;;;;;12.30;39.16;100339.47;5051783;28;20480;-61
2021/04/18 15:03:06;;;;;;;8.32;4.65;;;;;;;12.33;39.09;100345.44;5052087;28;20107;-61
2021/04/18 15:05:32;;;;;;;9.02;4.97;;;;;;;12.33;38.91;100341.91;5052320;28;20037;-61
2021/04/18 15:07:57;;;;;;;20.33;5.28;;;;;;;12.37;39.21;100348.75;5051343;28;20037;-61
2021/04/18 15:10:23;;;;;;;10.68;4.60;;;;;;;12.17;39.21;100332.38;5051468;28;20103;-62
2021/04/18 15:12:51;;;;;;;9.27;4.65;;;;;;;12.23;39.12;100357.03;5051738;28;20408;-63
2021/04/18 15:15:19;;;;;;;10.55;4.65;;;;;;;12.23;38.99;100335.56;5051531;28;20060;-61
2021/04/18 15:17:45;;;;;;;10.63;4.65;;;;;;;12.25;38.94;100344.34;5031926;28;20053;-61
2021/04/18 15:20:11;;;;;;;11.07;4.93;;;;;;;12.14;39.03;100329.09;5031322;28;20048;-61
2021/04/18 15:22:37;;;;;;;11.75;4.32;;;;;;;12.31;39.20;100354.59;5031703;28;20052;-61
2021/04/18 15:25:03;;;;;;;8.15;3.95;;;;;;;11.56;39.45;100220.84;5013955;28;20037;-62
2021/04/18 15:27:28;;;;;;;7.68;4.22;;;;;;;12.13;40.18;100330.94;5030851;28;20045;-62
2021/04/18 15:29:54;;;;;;;11.52;5.45;;;;;;;12.18;40.54;100365.47;5013648;28;20041;-62
2021/04/18 15:32:19;;;;;;;11.43;4.85;;;;;;;11.96;41.07;100348.34;5030913;28;20052;-62
2021/04/18 15:34:46;;;;;;;11.45;5.68;;;;;;;11.98;41.22;100365.16;5031291;28;20254;-60
2021/04/18 15:37:13;;;;;;;9.00;5.22;;;;;;;11.89;41.40;100360.50;5030940;28;20102;-58
2021/04/18 15:39:39;;;;;;;9.35;5.50;;;;;;;11.81;41.57;100346.84;5031215;28;20037;-61
2021/04/18 15:42:05;;;;;;;10.80;5.70;;;;;;;11.80;41.46;100335.22;4997537;28;20029;-58
2021/04/18 15:44:31;;;;;;;12.80;7.00;;;;;;;11.95;41.37;100337.72;5031575;28;20123;-63
2021/04/18 15:46:56;;;;;;;14.10;5.60;;;;;;;11.91;41.35;100326.34;5031190;28;20060;-61
2021/04/18 15:49:22;;;;;;;12.88;5.03;;;;;;;11.92;40.09;100323.56;5031342;28;20041;-62
2021/04/18 15:51:48;;;;;;;9.20;5.30;;;;;;;11.55;39.90;100280.81;5031269;28;20037;-62
2021/04/18 15:54:13;;;;;;;11.15;5.82;;;;;;;11.77;40.16;100314.00;5031674;28;20445;-63
2021/04/18 15:56:45;;;;;;;11.50;6.15;;;;;;;11.79;40.56;100320.13;5030947;28;20038;-62
2021/04/18 15:59:23;;;;;;;12.95;7.20;;;;;;;11.84;40.13;100338.53;5031420;28;20120;-62
2021/04/18 16:01:48;;;;;;;12.18;6.05;;;;;;;11.70;40.52;100310.09;5031793;28;20033;-63
2021/04/18 16:04:15;;;;;;;17.38;7.20;;;;;;;11.90;40.35;100344.28;5031837;28;20444;-63
2021/04/18 16:06:40;;;;;;;14.40;7.03;;;;;;;11.98;40.88;100334.78;5030470;28;20040;-62
2021/04/18 16:09:08;;;;;;;12.32;6.68;;;;;;;11.87;40.68;100328.44;5042609;28;20454;-61
2021/04/18 16:11:35;;;;;;;11.07;6.30;;;;;;;11.76;40.81;100313.19;5048297;28;20095;-63
2021/04/18 16:14:01;;;;;;;11.95;6.20;;;;;;;11.74;40.99;100317.81;5049736;28;20044;-61
2021/04/18 16:16:26;;;;;;;10.68;6.13;;;;;;;11.63;41.22;100305.22;5050092;28;20553;-62
2021/04/18 16:18:55;;;;;;;13.43;6.05;;;;;;;11.68;41.37;100328.16;5041903;28;20140;-63
2021/04/18 16:21:24;;;;;;;9.80;5.70;;;;;;;11.65;41.55;100323.03;5039112;28;20442;-62
2021/04/18 16:23:51;;;;;;;14.35;5.68;;;;;;;11.59;41.13;100319.00;5050346;28;20446;-64
2021/04/18 16:26:17;;;;;;;11.30;6.13;;;;;;;11.72;41.25;100333.16;5032859;28;20384;-64
2021/04/18 16:28:43;;;;;;;13.15;6.03;;;;;;;11.66;41.25;100322.06;5050616;28;20047;-66
2021/04/18 16:31:08;;;;;;;15.30;6.38;;;;;;;11.65;41.41;100336.44;5050057;28;20056;-64
2021/04/18 16:33:34;;;;;;;13.07;6.15;;;;;;;11.59;41.51;100338.63;5050627;28;20036;-64
2021/04/18 16:36:00;;;;;;;9.35;5.60;;;;;;;11.51;41.89;100345.53;5049913;28;20531;-63
2021/04/18 16:38:35;;;;;;;9.43;5.82;;;;;;;11.44;41.82;100340.63;5047907;28;20033;-64
2021/04/18 16:41:01;;;;;;;13.23;6.15;;;;;;;11.22;41.78;100314.59;5045028;28;20044;-64
2021/04/18 16:43:27;;;;;;;16.95;6.57;;;;;;;11.38;41.59;100330.38;5048537;28;20033;-64
2021/04/18 16:45:56;;;;;;;12.70;6.35;;;;;;;11.40;41.67;100332.97;5046160;28;20128;-62
2021/04/18 16:48:22;;;;;;;14.75;6.60;;;;;;;11.32;41.80;100355.81;5046269;28;20033;-63
2021/04/18 16:50:48;;;;;;;11.98;6.03;;;;;;;11.31;42.13;100335.34;5049753;28;20072;-66
2021/04/18 16:53:14;;;;;;;14.43;5.90;;;;;;;11.28;41.92;100327.53;5050148;28;20507;-64
2021/04/18 16:55:40;;;;;;;11.32;5.60;;;;;;;11.34;41.83;100335.13;5047800;28;20060;-63
2021/04/18 16:58:05;;;;;;;11.55;5.80;;;;;;;11.29;42.01;100344.50;5043423;28;20579;-62
2021/04/18 17:00:31;;;;;;;13.60;6.00;;;;;;;11.29;41.78;100342.66;5047630;28;20041;-61
2021/04/18 17:02:56;;;;;;;14.02;6.38;;;;;;;11.29;42.16;100356.06;5045012;28;20432;-64
2021/04/18 17:05:22;;;;;;;10.05;5.75;;;;;;;11.17;42.11;100338.22;5045873;28;20040;-65
2021/04/18 17:07:47;;;;;;;9.82;5.47;;;;;;;11.40;41.65;100355.25;5047877;28;20073;-64
2021/04/18 17:10:14;;;;;;;12.57;6.28;;;;;;;11.43;41.66;100372.94;5049767;28;20028;-63
2021/04/18 17:12:40;;;;;;;12.55;5.68;;;;;;;11.45;41.18;100376.34;5049729;28;20056;-60
2021/04/18 17:15:08;;;;;;;10.77;5.72;;;;;;;11.61;40.86;100366.19;5049218;28;20036;-63
2021/04/18 17:17:35;;;;;;;9.32;5.40;;;;;;;11.44;41.20;100380.84;5049850;28;20036;-65
2021/04/18 17:20:03;;;;;;;10.18;5.18;;;;;;;11.35;41.12;100341.34;5042402;28;20049;-65
2021/04/18 17:22:28;;;;;;;11.63;5.20;;;;;;;11.53;40.87;100365.88;5007508;28;20115;-66
2021/04/18 17:24:54;;;;;;;11.07;4.68;;;;;;;11.42;40.44;100387.31;5029241;28;20124;-64
2021/04/18 17:27:21;;;;;;;11.10;4.70;;;;;;;11.39;40.71;100380.34;5029118;28;20357;-66
2021/04/18 17:29:47;;;;;;;11.05;4.28;;;;;;;11.49;40.30;100369.78;5029529;28;20086;-66
2021/04/18 17:32:12;;;;;;;7.43;3.95;;;;;;;11.27;40.64;100341.06;5029121;28;20052;-61
2021/04/18 17:34:38;;;;;;;10.10;4.28;;;;;;;11.19;40.69;100330.94;5019208;28;20696;-64
2021/04/18 17:37:03;;;;;;;10.52;4.45;;;;;;;11.38;40.78;100367.91;5025756;28;20037;-63
2021/04/18 17:39:29;;;;;;;8.60;4.10;;;;;;;11.25;40.78;100361.78;5027664;28;20110;-65
2021/04/18 17:41:54;;;;;;;7.03;4.30;;;;;;;11.24;40.82;100360.06;5026621;28;20267;-65
2021/04/18 17:44:20;;;;;;;9.15;4.25;;;;;;;11.19;40.68;100373.81;5021065;28;20033;-64
2021/04/18 17:46:45;;;;;;;7.10;4.00;;;;;;;11.17;41.13;100365.03;5028426;28;20033;-63
2021/04/18 17:49:11;;;;;;;8.05;4.18;;;;;;;11.20;40.73;100354.91;5028646;28;20353;-66
2021/04/18 17:51:37;;;;;;;6.40;3.97;;;;;;;11.24;41.08;100384.19;5028213;28;20037;-63
2021/04/18 17:54:06;;;;;;;8.25;3.92;;;;;;;11.29;40.58;100380.19;5035551;28;20098;-63
2021/04/18 17:56:41;;;;;;;10.88;4.68;;;;;;;11.28;40.58;100370.44;5019513;28;20033;-65
2021/04/18 17:59:06;;;;;;;12.35;4.18;;;;;;;11.27;40.69;100390.16;5036846;28;20060;-64
2021/04/18 18:01:31;;;;;;;8.68;4.97;;;;;;;11.47;40.38;100396.72;5032003;28;20033;-63
2021/04/18 18:03:57;;;;;;;10.25;4.35;;;;;;;11.60;40.01;100395.78;5015778;28;20037;-63
2021/04/18 18:06:22;;;;;;;8.73;4.45;;;;;;;11.59;39.86;100380.66;5031961;28;20120;-62
2021/04/18 18:08:48;;;;;;;10.65;4.70;;;;;;;11.39;39.99;100366.09;5042646;28;20373;-61
2021/04/18 18:11:14;;;;;;;7.57;4.60;;;;;;;11.50;40.31;100403.66;5038962;28;20044;-61
2021/04/18 18:13:39;;;;;;;10.52;5.03;;;;;;;11.57;40.17;100383.44;5032013;28;20038;-64
2021/04/18 18:16:05;;;;;;;11.35;4.88;;;;;;;11.52;40.21;100401.72;5030287;28;20037;-65
2021/04/18 18:18:31;;;;;;;12.18;5.28;;;;;;;11.52;40.47;100385.63;5044875;28;20045;-65
2021/04/18 18:21:10;;;;;;;14.45;5.25;;;;;;;11.35;40.80;100373.50;5026385;28;20052;-66
2021/04/18 18:23:39;;;;;;;7.20;4.75;;;;;;;11.52;40.56;100384.78;5035426;28;20029;-61
2021/04/18 18:26:04;;;;;;;12.30;5.15;;;;;;;11.06;40.95;100322.94;5031649;28;20483;-64
2021/04/18 18:28:30;;;;;;;9.70;5.13;;;;;;;11.67;40.50;100382.78;5031983;28;20139;-64